Time;durP1;ratioP1;P1;durP2;ratioP2;P2;SDS_P1;SDS_P2;PMS_P1;PMS_P2;Temp;Humidity;BMP_temperature;BMP_pressure;BME280_temperature;BME280_humidity;BME280_pressure;Samples;Min_cycle;Max_cycle;Signal;HPM_P1;HPM_P2
2022/04/17 00:00:23;;;;;;;24.37;17.63;;;4.50;99.90;;;;;;5066710;28;20055;-34
2022/04/17 00:02:49;;;;;;;28.93;19.77;;;4.50;99.90;;;;;;5052770;28;20041;-33
2022/04/17 00:05:15;;;;;;;32.30;22.27;;;4.50;99.90;;;;;;5063557;28;20044;-32
2022/04/17 00:07:40;;;;;;;35.77;24.33;;;4.40;99.90;;;;;;5050054;28;20052;-32
2022/04/17 00:10:08;;;;;;;37.63;27.60;;;4.40;99.90;;;;;;5064217;28;20567;-34
2022/04/17 00:12:34;;;;;;;43.57;27.63;;;4.40;99.90;;;;;;5064898;28;20070;-32
2022/04/17 00:15:02;;;;;;;41.40;29.03;;;4.30;99.90;;;;;;5065337;28;20333;-31
2022/04/17 00:17:28;;;;;;;41.70;29.40;;;4.30;99.90;;;;;;5048378;28;20079;-32
2022/04/17 00:19:54;;;;;;;46.47;30.40;;;4.30;99.90;;;;;;5064070;28;20522;-34
2022/04/17 00:22:20;;;;;;;42.63;30.37;;;4.20;99.90;;;;;;5064591;28;20052;-31
2022/04/17 00:24:45;;;;;;;41.63;30.40;;;4.20;99.90;;;;;;5065260;28;20420;-32
2022/04/17 00:27:11;;;;;;;44.80;30.20;;;4.20;99.90;;;;;;5049716;28;20076;-34
2022/04/17 00:29:37;;;;;;;46.43;32.10;;;4.10;99.90;;;;;;5065262;28;20049;-31
2022/04/17 00:32:03;;;;;;;46.97;32.93;;;4.10;99.90;;;;;;5062435;28;20045;-41
2022/04/17 00:34:30;;;;;;;45.67;34.13;;;4.10;99.90;;;;;;5064764;28;20059;-34
2022/04/17 00:36:59;;;;;;;52.93;34.43;;;4.00;99.90;;;;;;5049239;28;20392;-33
2022/04/17 00:39:25;;;;;;;53.13;35.07;;;4.00;99.90;;;;;;5064451;28;20608;-33
2022/04/17 00:41:51;;;;;;;43.50;32.10;;;3.90;99.90;;;;;;5063616;28;20049;-34
2022/04/17 00:44:17;;;;;;;43.50;30.77;;;3.90;99.90;;;;;;5063910;28;20203;-31
2022/04/17 00:46:43;;;;;;;42.27;30.20;;;3.90;99.90;;;;;;5050452;28;20127;-31
2022/04/17 00:49:09;;;;;;;43.20;29.97;;;3.90;99.90;;;;;;5063765;28;20047;-35
2022/04/17 00:51:39;;;;;;;42.63;29.70;;;3.90;99.90;;;;;;5061134;28;20048;-33
2022/04/17 00:54:08;;;;;;;42.63;29.37;;;3.90;99.90;;;;;;5057449;28;20060;-34
2022/04/17 00:56:34;;;;;;;46.00;30.70;;;3.80;99.90;;;;;;5050696;28;20040;-33
2022/04/17 00:59:05;;;;;;;42.57;30.90;;;3.80;99.90;;;;;;5060794;28;20047;-34
2022/04/17 01:01:33;;;;;;;32.72;22.08;;;3.80;99.90;;;;;;5060433;28;20056;-34
2022/04/17 01:03:59;;;;;;;45.30;30.50;;;3.70;99.90;;;;;;5062645;28;20049;-33
2022/04/17 01:06:26;;;;;;;44.67;31.00;;;3.70;99.90;;;;;;5047979;28;20083;-33
2022/04/17 01:08:52;;;;;;;43.77;29.70;;;3.70;99.90;;;;;;5060938;28;20114;-36
2022/04/17 01:11:18;;;;;;;42.40;31.40;;;3.70;99.90;;;;;;5063771;28;20048;-35
2022/04/17 01:13:45;;;;;;;45.77;30.87;;;3.60;99.90;;;;;;5059330;28;20542;-32
2022/04/17 01:16:11;;;;;;;44.33;30.73;;;3.70;99.90;;;;;;5056453;28;20036;-35
2022/04/17 01:18:57;;;;;;;40.97;30.60;;;3.60;99.90;;;;;;5054012;28;20056;-32
2022/04/17 01:21:24;;;;;;;45.17;31.07;;;3.60;99.90;;;;;;5062214;28;20036;-31
2022/04/17 01:29:19;;;;;;;54.97;37.87;;;3.50;99.90;;;;;;5061588;28;20144;-34
2022/04/17 01:31:46;;;;;;;53.40;37.43;;;3.50;99.90;;;;;;5060715;28;20080;-35
2022/04/17 01:34:16;;;;;;;53.57;39.33;;;3.50;99.90;;;;;;5058128;28;20044;-33
2022/04/17 01:36:46;;;;;;;46.63;31.83;;;3.40;99.90;;;;;;5046816;28;20249;-35
2022/04/17 01:39:13;;;;;;;59.73;41.10;;;3.40;99.90;;;;;;5063879;28;20049;-35
2022/04/17 01:41:39;;;;;;;62.07;44.53;;;3.40;99.90;;;;;;5063164;28;20040;-33
2022/04/17 01:44:06;;;;;;;62.97;46.93;;;3.40;99.90;;;;;;5061769;28;20194;-33
2022/04/17 01:46:33;;;;;;;68.97;48.60;;;3.30;99.90;;;;;;5048051;28;20049;-32
2022/04/17 01:48:58;;;;;;;72.67;49.73;;;3.40;99.90;;;;;;5061242;28;20044;-34
2022/04/17 01:51:24;;;;;;;79.10;52.37;;;3.30;99.90;;;;;;5062598;28;20045;-32
2022/04/17 01:53:50;;;;;;;72.50;54.10;;;3.30;99.90;;;;;;5063344;28;20051;-34
2022/04/17 01:56:16;;;;;;;80.53;54.43;;;3.30;99.90;;;;;;5044811;28;20160;-35
2022/04/17 01:58:41;;;;;;;81.37;55.60;;;3.30;99.90;;;;;;5058168;28;20048;-32
2022/04/17 02:01:07;;;;;;;79.00;53.43;;;3.20;99.90;;;;;;5061379;28;20599;-34
2022/04/17 02:03:33;;;;;;;73.50;52.67;;;3.20;99.90;;;;;;5059054;28;20045;-33
2022/04/17 02:06:00;;;;;;;80.27;54.43;;;3.20;99.90;;;;;;5058381;28;20040;-30
2022/04/17 02:08:29;;;;;;;78.00;55.60;;;3.10;99.90;;;;;;5047381;28;20054;-31
2022/04/17 02:10:56;;;;;;;84.30;57.03;;;3.10;99.90;;;;;;5063192;28;20194;-32
2022/04/17 02:13:25;;;;;;;77.80;56.90;;;3.10;99.90;;;;;;5062329;28;20131;-35
2022/04/17 02:15:53;;;;;;;81.20;55.63;;;3.10;99.90;;;;;;5063021;28;20051;-34
2022/04/17 02:18:22;;;;;;;82.33;58.20;;;3.00;99.90;;;;;;5045439;28;20036;-32
2022/04/17 02:20:48;;;;;;;81.90;59.43;;;3.00;99.90;;;;;;5063019;28;20048;-33
2022/04/17 02:23:14;;;;;;;80.33;57.83;;;3.00;99.90;;;;;;5061467;28;20041;-32
2022/04/17 02:25:40;;;;;;;77.73;55.63;;;2.90;99.90;;;;;;5059934;28;20514;-32
2022/04/17 02:28:07;;;;;;;78.93;55.70;;;2.90;99.90;;;;;;5045003;28;20118;-34
2022/04/17 02:30:32;;;;;;;85.20;58.30;;;2.90;99.90;;;;;;5063322;28;20055;-31
2022/04/17 02:32:58;;;;;;;80.13;57.10;;;2.90;99.90;;;;;;5060312;28;20131;-34
2022/04/17 02:35:24;;;;;;;76.37;54.73;;;2.90;99.90;;;;;;5062911;28;20036;-34
2022/04/17 02:37:49;;;;;;;73.80;53.07;;;2.90;99.90;;;;;;5046176;28;20056;-35
2022/04/17 02:40:15;;;;;;;74.20;52.20;;;2.80;99.90;;;;;;5045340;28;20063;-31
2022/04/17 02:42:40;;;;;;;73.67;50.40;;;2.80;99.90;;;;;;5058679;28;20091;-35
2022/04/17 02:45:06;;;;;;;71.47;49.20;;;2.80;99.90;;;;;;5063599;28;20048;-32
2022/04/17 02:47:45;;;;;;;65.93;48.13;;;2.80;99.90;;;;;;5039444;28;20133;-31
2022/04/17 02:50:12;;;;;;;68.07;47.17;;;2.80;99.90;;;;;;5062303;28;20109;-32
2022/04/17 02:52:38;;;;;;;64.27;45.80;;;2.70;99.90;;;;;;5060138;28;20432;-34
2022/04/17 02:55:05;;;;;;;66.47;43.87;;;2.80;99.90;;;;;;5059607;28;20131;-33
2022/04/17 02:57:31;;;;;;;59.57;43.80;;;2.70;99.90;;;;;;5038054;28;20136;-32
2022/04/17 02:59:57;;;;;;;60.93;44.13;;;2.70;99.90;;;;;;5062839;28;20123;-35
2022/04/17 03:07:53;;;;;;;57.70;42.40;;;2.60;99.90;;;;;;5046279;28;20051;-32
2022/04/17 03:10:19;;;;;;;60.67;41.90;;;2.60;99.90;;;;;;5056447;28;20041;-35
2022/04/17 03:12:45;;;;;;;60.87;43.47;;;2.60;99.90;;;;;;5060155;28;20051;-32
2022/04/17 03:15:10;;;;;;;64.87;44.47;;;2.60;99.90;;;;;;5063333;28;20051;-32
2022/04/17 03:17:37;;;;;;;65.10;44.50;;;2.60;99.90;;;;;;5044419;28;20040;-32
2022/04/17 03:20:04;;;;;;;61.37;43.10;;;2.60;99.90;;;;;;5063125;28;20055;-33
2022/04/17 03:22:29;;;;;;;62.53;45.03;;;2.60;99.90;;;;;;5060228;28;20051;-34
2022/04/17 03:24:55;;;;;;;61.57;44.33;;;2.50;99.90;;;;;;5063232;28;20147;-31
2022/04/17 03:27:21;;;;;;;59.27;43.33;;;2.50;99.90;;;;;;5042739;28;20073;-32
2022/04/17 03:29:47;;;;;;;61.33;43.50;;;2.50;99.90;;;;;;5062452;28;20093;-32
2022/04/17 03:32:13;;;;;;;61.97;45.40;;;2.50;99.90;;;;;;5060890;28;20040;-33
2022/04/17 03:34:38;;;;;;;62.33;44.13;;;2.50;99.90;;;;;;5059476;28;20089;-33
2022/04/17 03:37:05;;;;;;;63.67;44.87;;;2.50;99.90;;;;;;5049533;28;20064;-34
2022/04/17 03:39:34;;;;;;;67.43;45.00;;;2.40;99.90;;;;;;5063995;28;20040;-31
2022/04/17 03:42:00;;;;;;;64.63;44.93;;;2.40;99.90;;;;;;5060566;28;20123;-32
2022/04/17 03:44:26;;;;;;;61.67;44.40;;;2.40;99.90;;;;;;5063529;28;20048;-31
2022/04/17 03:46:52;;;;;;;69.77;44.63;;;2.40;99.90;;;;;;5047281;28;20257;-32
2022/04/17 03:49:18;;;;;;;59.70;43.30;;;2.40;99.90;;;;;;5061031;28;20044;-33
2022/04/17 03:51:43;;;;;;;59.50;41.47;;;2.40;99.90;;;;;;5063622;28;20098;-33
2022/04/17 03:54:10;;;;;;;54.30;41.07;;;2.40;99.90;;;;;;5065485;28;20491;-33
2022/04/17 03:56:35;;;;;;;57.33;39.60;;;2.30;99.90;;;;;;5052260;28;20466;-34
2022/04/17 03:59:01;;;;;;;61.20;40.27;;;2.30;99.90;;;;;;5062084;28;20063;-32
2022/04/17 04:01:27;;;;;;;55.20;39.10;;;2.30;99.90;;;;;;5064355;28;20076;-33
2022/04/17 04:03:56;;;;;;;55.80;39.17;;;2.30;99.90;;;;;;5053750;28;20072;-32
2022/04/17 04:06:22;;;;;;;53.53;39.10;;;2.30;99.90;;;;;;5052125;28;20150;-34
2022/04/17 04:08:49;;;;;;;54.37;37.83;;;2.30;99.90;;;;;;5061372;28;20844;-34
2022/04/17 04:11:15;;;;;;;50.97;37.90;;;2.20;99.90;;;;;;5064455;28;20056;-32
2022/04/17 04:13:43;;;;;;;53.50;36.87;;;2.20;99.90;;;;;;5064239;28;20091;-31
2022/04/17 04:16:09;;;;;;;51.07;35.87;;;2.20;99.90;;;;;;5059908;28;20133;-32
2022/04/17 04:18:35;;;;;;;49.40;34.47;;;2.20;99.90;;;;;;5052107;28;20059;-34
2022/04/17 04:21:02;;;;;;;48.73;33.93;;;2.20;99.90;;;;;;5065884;28;20037;-32
2022/04/17 04:23:31;;;;;;;52.37;34.47;;;2.20;99.90;;;;;;5059560;28;20072;-33
2022/04/17 04:25:57;;;;;;;48.93;34.43;;;2.10;99.90;;;;;;5066007;28;20052;-33
2022/04/17 04:28:37;;;;;;;50.33;34.23;;;2.10;99.90;;;;;;5047021;28;20053;-31
2022/04/17 04:31:11;;;;;;;47.97;33.80;;;2.00;99.90;;;;;;5065222;28;20044;-34
2022/04/17 04:33:39;;;;;;;48.80;33.83;;;2.00;99.90;;;;;;5057245;28;20838;-33
2022/04/17 04:36:09;;;;;;;44.07;32.67;;;2.00;99.90;;;;;;5065550;28;20365;-33
2022/04/17 04:38:35;;;;;;;35.63;24.70;;;2.00;99.90;;;;;;5057076;28;20060;-31
2022/04/17 04:41:01;;;;;;;42.57;31.43;;;1.90;99.90;;;;;;5065633;28;20044;-33
2022/04/17 04:43:26;;;;;;;40.87;28.93;;;1.90;99.90;;;;;;5062189;28;20294;-30
2022/04/17 04:46:08;;;;;;;44.03;31.50;;;1.90;99.90;;;;;;5064893;28;20059;-34
2022/04/17 04:51:24;;;;;;;40.93;30.97;;;1.80;99.90;;;;;;5052749;28;20064;-34
2022/04/17 04:53:50;;;;;;;39.37;29.00;;;1.80;99.90;;;;;;5054272;28;20052;-34
2022/04/17 04:56:16;;;;;;;35.33;26.57;;;1.80;99.90;;;;;;5046184;28;20048;-34
2022/04/17 04:58:43;;;;;;;36.20;25.97;;;1.80;99.90;;;;;;5053428;28;20067;-31
2022/04/17 05:01:08;;;;;;;37.43;26.20;;;1.80;99.90;;;;;;5064998;28;20072;-34
2022/04/17 05:03:35;;;;;;;39.60;25.43;;;1.80;99.90;;;;;;5061955;28;20190;-34
2022/04/17 05:06:01;;;;;;;35.70;24.93;;;1.80;99.90;;;;;;5064099;28;20048;-34
2022/04/17 05:08:27;;;;;;;32.20;24.10;;;1.80;99.90;;;;;;5046725;28;20396;-31
2022/04/17 05:10:53;;;;;;;32.23;22.60;;;1.90;99.90;;;;;;5064901;28;20059;-32
2022/04/17 05:13:19;;;;;;;31.30;23.00;;;1.90;99.90;;;;;;5063132;28;20068;-31
2022/04/17 05:15:45;;;;;;;30.07;21.90;;;1.90;99.90;;;;;;5064320;28;20044;-31
2022/04/17 05:18:10;;;;;;;28.63;21.83;;;1.90;99.90;;;;;;5043391;28;20040;-34
2022/04/17 05:20:36;;;;;;;29.57;20.93;;;1.90;99.90;;;;;;5062683;28;20143;-31
2022/04/17 05:23:17;;;;;;;30.27;20.60;;;2.00;99.90;;;;;;5060118;28;20048;-33
2022/04/17 05:25:49;;;;;;;28.98;20.25;;;2.00;99.90;;;;;;5062696;28;20043;-34
2022/04/17 05:28:16;;;;;;;28.27;18.93;;;2.10;99.90;;;;;;5046106;28;20836;-33
2022/04/17 05:30:43;;;;;;;26.33;17.93;;;2.20;99.90;;;;;;5052250;28;20403;-33
2022/04/17 05:33:09;;;;;;;29.17;19.90;;;2.20;99.90;;;;;;5061407;28;20049;-33
2022/04/17 05:35:35;;;;;;;23.93;17.90;;;2.30;99.90;;;;;;5063379;28;20037;-33
2022/04/17 05:38:01;;;;;;;28.00;17.83;;;2.40;99.90;;;;;;5043204;28;20032;-32
2022/04/17 05:40:28;;;;;;;25.60;17.43;;;2.40;99.90;;;;;;5062708;28;20056;-34
2022/04/17 05:42:55;;;;;;;28.87;17.73;;;2.50;99.90;;;;;;5062649;28;20045;-31
2022/04/17 05:45:20;;;;;;;23.33;16.30;;;2.60;99.90;;;;;;5059255;28;20436;-31
2022/04/17 05:47:46;;;;;;;21.93;15.63;;;2.60;99.90;;;;;;5048040;28;20048;-34
2022/04/17 05:50:13;;;;;;;22.20;14.73;;;2.80;99.90;;;;;;5063421;28;20080;-34
2022/04/17 05:52:39;;;;;;;20.67;13.50;;;2.80;99.90;;;;;;5058776;28;20040;-34
2022/04/17 05:55:06;;;;;;;20.63;13.33;;;3.00;99.90;;;;;;5063314;28;20089;-33
2022/04/17 05:57:32;;;;;;;19.33;12.93;;;3.10;99.90;;;;;;5048001;28;20110;-35
2022/04/17 05:59:57;;;;;;;21.17;13.07;;;3.30;99.90;;;;;;5062332;28;20482;-34
2022/04/17 06:02:23;;;;;;;19.73;12.87;;;3.40;99.90;;;;;;5057723;28;20817;-30
2022/04/17 06:04:49;;;;;;;19.33;11.57;;;3.60;99.90;;;;;;5050489;28;20045;-33
2022/04/17 06:07:25;;;;;;;17.77;12.10;;;3.70;99.90;;;;;;5040756;28;20707;-32
2022/04/17 06:09:51;;;;;;;17.33;12.00;;;3.90;99.90;;;;;;5062351;28;20048;-32
2022/04/17 06:12:17;;;;;;;17.33;12.00;;;4.10;99.90;;;;;;5061893;28;20130;-31
2022/04/17 06:14:43;;;;;;;17.80;11.37;;;4.20;99.90;;;;;;5063460;28;20048;-34
2022/04/17 06:17:10;;;;;;;16.77;11.70;;;4.40;99.90;;;;;;5048179;28;20556;-35
2022/04/17 06:19:36;;;;;;;17.43;11.27;;;4.50;99.90;;;;;;5058307;28;20055;-33
2022/04/17 06:22:02;;;;;;;18.07;11.90;;;4.70;99.90;;;;;;5062156;28;20102;-31
2022/04/17 06:24:28;;;;;;;16.47;12.07;;;4.90;99.90;;;;;;5061632;28;20519;-33
2022/04/17 06:26:53;;;;;;;16.77;11.67;;;5.10;99.90;;;;;;5045952;28;20110;-34
2022/04/17 06:29:19;;;;;;;15.83;11.83;;;5.30;99.90;;;;;;5062040;28;20049;-32
2022/04/17 06:31:45;;;;;;;17.03;11.67;;;5.40;99.90;;;;;;5060523;28;20411;-31
2022/04/17 06:34:15;;;;;;;15.40;11.27;;;5.60;99.90;;;;;;5062259;28;20747;-34
2022/04/17 06:36:41;;;;;;;19.63;12.07;;;5.80;99.90;;;;;;5046909;28;20101;-31
2022/04/17 06:39:07;;;;;;;14.93;10.33;;;6.00;99.90;;;;;;5059797;28;20131;-33
2022/04/17 06:41:33;;;;;;;17.10;11.73;;;6.20;99.90;;;;;;5062900;28;20131;-34
2022/04/17 06:43:58;;;;;;;18.60;11.43;;;6.30;99.90;;;;;;5061077;28;20495;-34
2022/04/17 06:46:24;;;;;;;13.70;10.33;;;6.50;99.90;;;;;;5044553;28;20048;-32
2022/04/17 06:48:50;;;;;;;15.30;10.53;;;6.70;99.90;;;;;;5040716;28;20044;-34
2022/04/17 06:51:19;;;;;;;15.27;10.30;;;6.80;99.90;;;;;;5053912;28;20071;-33
2022/04/17 06:53:44;;;;;;;15.03;10.47;;;6.90;99.90;;;;;;5050941;28;20045;-34
2022/04/17 06:56:12;;;;;;;15.13;10.03;;;7.10;99.90;;;;;;5044057;28;20040;-34
2022/04/17 06:58:38;;;;;;;13.03;9.90;;;7.20;99.90;;;;;;5044601;28;20049;-33
2022/04/17 07:01:04;;;;;;;15.83;10.87;;;7.30;99.90;;;;;;5056003;28;20045;-35
2022/04/17 07:03:29;;;;;;;14.90;9.90;;;7.40;99.90;;;;;;5053804;28;20043;-34
2022/04/17 07:05:55;;;;;;;13.70;9.80;;;7.50;99.90;;;;;;5056638;28;20037;-35
2022/04/17 07:08:21;;;;;;;18.83;11.07;;;7.60;99.90;;;;;;5033919;28;20074;-34
2022/04/17 07:10:46;;;;;;;18.73;9.40;;;7.70;99.90;;;;;;5026250;28;20138;-35
2022/04/17 07:13:15;;;;;;;14.90;9.83;;;7.80;99.90;;;;;;5055097;28;20110;-34
2022/04/17 07:15:40;;;;;;;13.70;9.67;;;7.90;99.90;;;;;;5063044;28;20050;-35
2022/04/17 07:18:06;;;;;;;13.43;9.40;;;8.00;99.90;;;;;;5048491;28;20044;-33
2022/04/17 07:20:32;;;;;;;12.77;9.10;;;8.20;99.90;;;;;;5061737;28;20064;-35
2022/04/17 07:23:00;;;;;;;12.67;8.73;;;8.10;99.90;;;;;;5058941;28;20048;-31
2022/04/17 07:25:26;;;;;;;13.73;8.40;;;8.30;99.90;;;;;;5065451;28;20503;-35
2022/04/17 07:27:53;;;;;;;14.93;8.80;;;8.30;99.90;;;;;;5045437;28;20335;-32
2022/04/17 07:30:26;;;;;;;12.30;9.03;;;8.40;99.90;;;;;;5065231;28;20048;-33
2022/04/17 07:32:55;;;;;;;11.70;8.87;;;8.40;99.90;;;;;;5060098;28;20049;-35
2022/04/17 07:35:22;;;;;;;11.40;8.30;;;8.40;99.90;;;;;;5063878;28;20340;-34
2022/04/17 07:37:49;;;;;;;12.03;8.50;;;8.50;99.90;;;;;;5048660;28;20041;-31
2022/04/17 07:40:19;;;;;;;12.00;8.53;;;8.50;99.90;;;;;;5061536;28;20133;-34
2022/04/17 07:42:45;;;;;;;15.03;8.90;;;8.60;99.90;;;;;;5062994;28;20053;-35
2022/04/17 07:45:12;;;;;;;13.50;9.60;;;8.60;99.90;;;;;;5064534;28;20053;-32
2022/04/17 07:47:38;;;;;;;14.67;8.80;;;8.80;99.90;;;;;;5048536;28;20059;-35
2022/04/17 07:50:07;;;;;;;14.63;8.40;;;8.70;99.90;;;;;;5064139;28;20032;-34
2022/04/17 07:52:36;;;;;;;12.23;8.50;;;8.80;99.90;;;;;;5059546;28;20074;-34
2022/04/17 07:55:06;;;;;;;15.57;9.20;;;8.90;99.90;;;;;;5064033;28;20036;-33
2022/04/17 08:00:57;;;;;;;14.00;9.15;;;9.00;99.90;;;;;;5036376;28;20415;-35
2022/04/17 08:03:34;;;;;;;15.60;9.53;;;9.00;99.90;;;;;;5056078;28;20194;-37
2022/04/17 08:06:01;;;;;;;11.40;9.03;;;9.10;99.90;;;;;;5061696;28;20389;-34
2022/04/17 08:08:28;;;;;;;11.87;8.87;;;9.10;99.90;;;;;;5045894;28;20503;-36
2022/04/17 08:10:53;;;;;;;11.27;8.30;;;9.20;99.90;;;;;;5062874;28;20048;-33
2022/04/17 08:13:21;;;;;;;12.00;8.67;;;9.20;99.90;;;;;;5060006;28;20443;-36
2022/04/17 08:15:47;;;;;;;14.80;8.50;;;9.20;99.90;;;;;;5060864;28;20040;-35
2022/04/17 08:18:13;;;;;;;11.10;8.70;;;9.40;99.90;;;;;;5048092;28;20090;-34
2022/04/17 08:20:39;;;;;;;13.13;9.13;;;9.40;99.90;;;;;;5055349;28;20032;-35
2022/04/17 08:23:05;;;;;;;11.53;9.00;;;9.50;99.90;;;;;;5052925;28;20048;-34
2022/04/17 08:25:32;;;;;;;13.40;8.57;;;9.60;99.90;;;;;;5053927;28;20045;-34
2022/04/17 08:27:58;;;;;;;11.87;8.23;;;9.60;99.90;;;;;;5037427;28;20052;-32
2022/04/17 08:30:26;;;;;;;13.50;8.73;;;9.70;99.90;;;;;;5063964;28;20047;-35
2022/04/17 08:32:53;;;;;;;9.17;7.70;;;9.70;99.90;;;;;;5051758;28;20044;-34
2022/04/17 08:35:19;;;;;;;15.13;8.63;;;9.80;99.90;;;;;;5049712;28;20701;-34
2022/04/17 08:37:45;;;;;;;11.03;8.10;;;9.80;99.90;;;;;;5037522;28;20044;-36
2022/04/17 08:40:12;;;;;;;12.57;8.30;;;9.90;99.90;;;;;;5047561;28;20463;-35
2022/04/17 08:42:39;;;;;;;13.07;7.93;;;10.00;99.90;;;;;;5051806;28;20132;-35
2022/04/17 08:45:12;;;;;;;16.90;8.03;;;10.10;99.90;;;;;;5054116;28;20119;-36
2022/04/17 08:47:39;;;;;;;11.23;7.23;;;10.20;99.90;;;;;;5029721;28;20045;-34
2022/04/17 08:50:13;;;;;;;11.60;8.03;;;10.20;99.90;;;;;;5047845;28;20115;-36
2022/04/17 08:52:41;;;;;;;10.10;7.00;;;10.30;99.90;;;;;;5051551;28;20598;-36
2022/04/17 08:55:07;;;;;;;12.27;7.77;;;10.30;99.90;;;;;;5052741;28;20066;-32
2022/04/17 08:57:33;;;;;;;11.70;7.83;;;10.40;99.90;;;;;;5036062;28;20059;-31
2022/04/17 08:59:59;;;;;;;9.97;6.93;;;10.50;99.90;;;;;;5047285;28;20049;-34
2022/04/17 09:02:25;;;;;;;12.00;7.63;;;10.50;99.90;;;;;;5043717;28;20057;-35
2022/04/17 09:04:50;;;;;;;9.40;7.07;;;10.70;99.90;;;;;;5048763;28;20049;-33
2022/04/17 09:07:16;;;;;;;10.07;6.47;;;10.80;99.90;;;;;;5034940;28;20040;-34
2022/04/17 09:09:52;;;;;;;11.50;6.50;;;10.80;99.90;;;;;;5048951;28;20084;-35
2022/04/17 09:12:23;;;;;;;13.18;6.95;;;10.90;99.90;;;;;;5042595;28;20048;-34
2022/04/17 09:14:49;;;;;;;8.20;6.72;;;11.00;99.90;;;;;;5044487;28;20068;-35
2022/04/17 09:17:15;;;;;;;9.82;6.85;;;11.00;99.90;;;;;;5030454;28;20048;-36
2022/04/17 09:19:43;;;;;;;12.73;7.05;;;11.20;99.90;;;;;;5050656;28;20044;-34
2022/04/17 09:22:12;;;;;;;10.23;7.13;;;11.30;99.90;;;;;;5052542;28;20119;-35
2022/04/17 09:24:39;;;;;;;10.05;6.35;;;11.40;99.90;;;;;;5051238;28;20139;-33
2022/04/17 09:27:07;;;;;;;11.10;6.55;;;11.50;99.90;;;;;;5035181;28;20049;-35
2022/04/17 09:29:37;;;;;;;9.10;5.90;;;11.60;99.90;;;;;;5047800;28;20136;-35
2022/04/17 09:32:08;;;;;;;11.52;6.15;;;11.70;99.90;;;;;;5052520;28;20524;-33
2022/04/17 09:34:43;;;;;;;8.18;6.28;;;11.70;99.90;;;;;;5050513;28;20036;-35
2022/04/17 09:37:16;;;;;;;8.60;5.82;;;11.80;99.90;;;;;;5034915;28;20097;-34
2022/04/17 09:39:42;;;;;;;8.25;5.88;;;11.80;99.90;;;;;;5057038;28;20048;-35
2022/04/17 09:42:08;;;;;;;8.10;5.57;;;11.90;99.90;;;;;;5062284;28;20045;-35
2022/04/17 09:44:54;;;;;;;11.38;5.50;;;12.10;99.90;;;;;;5064292;28;20048;-34
2022/04/17 09:47:20;;;;;;;8.18;5.53;;;12.00;99.90;;;;;;5047391;28;20052;-36
2022/04/17 09:49:54;;;;;;;9.07;5.80;;;12.10;99.90;;;;;;5063545;28;20142;-34
2022/04/17 09:52:21;;;;;;;8.77;5.70;;;12.10;99.90;;;;;;5057052;28;20056;-33
2022/04/17 09:54:49;;;;;;;8.90;6.10;;;12.20;99.90;;;;;;4975609;28;20064;-35
2022/04/17 09:57:35;;;;;;;9.85;5.95;;;12.30;99.90;;;;;;5033669;28;20121;-33
2022/04/17 10:00:11;;;;;;;9.25;5.32;;;12.30;99.90;;;;;;5011196;28;20037;-35
2022/04/17 10:02:41;;;;;;;7.10;5.43;;;12.30;99.90;;;;;;5028443;28;20057;-33
2022/04/17 10:05:09;;;;;;;7.27;5.53;;;12.40;99.90;;;;;;5047921;28;20052;-34
2022/04/17 10:07:38;;;;;;;8.18;5.10;;;12.50;99.90;;;;;;5031120;28;20283;-33
2022/04/17 10:10:05;;;;;;;8.30;5.63;;;12.50;99.90;;;;;;5049129;28;20090;-34
2022/04/17 10:12:34;;;;;;;8.10;5.78;;;12.50;99.90;;;;;;5044191;28;20132;-34
2022/04/17 10:15:04;;;;;;;9.35;5.65;;;12.50;99.90;;;;;;5044114;28;20048;-32
2022/04/17 10:17:30;;;;;;;6.30;5.22;;;12.60;99.90;;;;;;5030405;28;20055;-33
2022/04/17 10:20:02;;;;;;;8.98;5.78;;;12.70;99.90;;;;;;5045744;28;20132;-35
2022/04/17 10:22:31;;;;;;;;;;;12.70;99.90;;;;;;5046494;28;20105;-36
2022/04/17 10:24:58;;;;;;;8.68;5.38;;;12.80;99.00;;;;;;5049011;28;19928;-36
2022/04/17 10:27:35;;;;;;;7.85;5.10;;;12.90;99.90;;;;;;5009517;28;20563;-35
2022/04/17 10:30:23;;;;;;;7.75;5.63;;;12.90;99.90;;;;;;5049005;28;20105;-35
2022/04/17 10:32:58;;;;;;;8.57;5.45;;;13.00;99.90;;;;;;5054539;28;20147;-36
2022/04/17 10:36:10;;;;;;;12.07;5.60;;;13.10;99.90;;;;;;5054286;28;20044;-34
2022/04/17 10:38:57;;;;;;;7.30;5.78;;;13.20;99.90;;;;;;5054230;28;20265;-34
2022/04/17 10:41:23;;;;;;;8.40;5.30;;;13.20;99.90;;;;;;5060999;28;20136;-36
2022/04/17 10:44:07;;;;;;;7.72;5.20;;;13.30;99.90;;;;;;5058350;28;20044;-32
2022/04/17 10:46:46;;;;;;;7.40;5.60;;;13.40;99.90;;;;;;5045353;28;20056;-35
2022/04/17 10:49:15;;;;;;;7.38;4.97;;;13.60;99.80;;;;;;5050763;28;20102;-34
2022/04/17 10:51:58;;;;;;;7.80;5.18;;;13.70;99.40;;;;;;5059386;28;20387;-37
2022/04/17 10:54:46;;;;;;;8.13;4.72;;;13.80;99.70;;;;;;5055457;28;20736;-35
2022/04/17 10:57:12;;;;;;;6.85;4.63;;;13.80;99.50;;;;;;5037259;28;20305;-34
2022/04/17 10:59:40;;;;;;;6.72;4.70;;;13.90;99.80;;;;;;5055874;28;20554;-36
2022/04/17 11:02:08;;;;;;;7.38;5.38;;;13.90;99.90;;;;;;5058307;28;20044;-36
2022/04/17 11:04:37;;;;;;;8.38;4.55;;;14.00;98.90;;;;;;5060266;28;20052;-36
2022/04/17 11:07:09;;;;;;;7.32;4.72;;;14.10;98.60;;;;;;5044705;28;20067;-44
2022/04/17 11:09:42;;;;;;;6.65;5.20;;;14.10;98.50;;;;;;5044106;28;20053;-35
2022/04/17 11:12:10;;;;;;;7.30;4.50;;;14.20;97.80;;;;;;5060729;28;20097;-37
2022/04/17 11:14:38;;;;;;;5.70;4.20;;;14.30;97.80;;;;;;5061948;28;20195;-36
2022/04/17 11:17:08;;;;;;;5.70;4.25;;;14.30;98.00;;;;;;5040687;28;20498;-35
2022/04/17 11:19:38;;;;;;;7.18;4.05;;;14.40;97.50;;;;;;5060379;28;20118;-36
2022/04/17 11:22:08;;;;;;;6.18;4.50;;;14.60;96.50;;;;;;5057607;28;20051;-33
2022/04/17 11:24:57;;;;;;;6.20;3.95;;;14.70;96.40;;;;;;5060395;28;20403;-35
2022/04/17 11:27:31;;;;;;;7.65;3.85;;;14.70;94.60;;;;;;5045945;28;20440;-36
2022/04/17 11:29:58;;;;;;;4.97;3.92;;;14.90;92.70;;;;;;5061833;28;20056;-35
2022/04/17 11:32:27;;;;;;;5.35;3.92;;;14.90;90.50;;;;;;5058278;28;20147;-36
2022/04/17 11:34:53;;;;;;;4.90;3.47;;;14.90;88.70;;;;;;5060034;28;20056;-36
2022/04/17 11:37:20;;;;;;;6.85;4.30;;;15.00;91.30;;;;;;5046487;28;20043;-35
2022/04/17 11:39:46;;;;;;;8.20;5.00;;;15.20;92.90;;;;;;5060450;28;20511;-34
2022/04/17 11:42:12;;;;;;;5.85;4.55;;;15.20;92.60;;;;;;5057535;28;20056;-33
2022/04/17 11:44:42;;;;;;;7.05;4.65;;;15.40;93.00;;;;;;5058179;28;20436;-34
2022/04/17 11:47:10;;;;;;;5.03;4.25;;;15.50;93.30;;;;;;5043598;28;20519;-37
2022/04/17 11:49:47;;;;;;;5.47;4.80;;;15.60;93.10;;;;;;5061347;28;20044;-34
2022/04/17 11:52:20;;;;;;;7.28;4.68;;;15.60;92.20;;;;;;5054850;28;20415;-37
2022/04/17 11:54:47;;;;;;;5.88;4.68;;;15.70;91.10;;;;;;5035017;28;20044;-37
2022/04/17 11:57:14;;;;;;;5.78;4.40;;;15.70;91.80;;;;;;5041364;28;20036;-37
2022/04/17 11:59:58;;;;;;;7.38;4.68;;;15.80;89.70;;;;;;5056343;28;20076;-36
2022/04/17 12:02:26;;;;;;;7.93;5.55;;;16.00;90.90;;;;;;5057380;28;20139;-37
2022/04/17 12:05:17;;;;;;;8.23;5.35;;;16.00;91.40;;;;;;5056164;28;20052;-36
2022/04/17 12:07:44;;;;;;;6.50;4.85;;;16.00;90.70;;;;;;4996223;28;20101;-38
2022/04/17 12:10:14;;;;;;;10.70;5.60;;;16.10;91.50;;;;;;5064898;28;20515;-36
2022/04/17 12:12:39;;;;;;;7.93;5.25;;;16.20;90.80;;;;;;5063703;28;20051;-37
2022/04/17 12:15:08;;;;;;;6.47;4.68;;;16.20;88.30;;;;;;5062739;28;20040;-36
2022/04/17 12:17:35;;;;;;;5.93;5.32;;;16.30;90.70;;;;;;5049364;28;20051;-36
2022/04/17 12:20:08;;;;;;;6.18;4.72;;;16.30;90.80;;;;;;5042927;28;20052;-35
2022/04/17 12:22:35;;;;;;;8.02;4.95;;;16.40;90.70;;;;;;5054560;28;20056;-36
2022/04/17 12:25:01;;;;;;;6.93;5.00;;;16.40;91.10;;;;;;5064303;28;20381;-36
2022/04/17 12:27:27;;;;;;;7.82;5.25;;;16.50;90.20;;;;;;5046736;28;20628;-36
2022/04/17 12:29:56;;;;;;;7.68;5.03;;;16.50;88.40;;;;;;5062111;28;20144;-33
2022/04/17 12:32:23;;;;;;;5.85;4.18;;;16.50;88.60;;;;;;5061158;28;20056;-33
2022/04/17 12:35:03;;;;;;;5.50;4.30;;;16.60;89.10;;;;;;5063861;28;20483;-36
2022/04/17 12:37:33;;;;;;;5.93;4.35;;;16.60;88.60;;;;;;5045057;28;20440;-36
2022/04/17 12:40:20;;;;;;;5.70;4.28;;;16.70;88.90;;;;;;5049641;28;20406;-35
2022/04/17 12:42:50;;;;;;;5.30;3.92;;;16.80;88.40;;;;;;5062819;28;20082;-35
2022/04/17 12:45:26;;;;;;;6.65;4.63;;;16.80;88.20;;;;;;5046348;28;20139;-35
2022/04/17 12:48:06;;;;;;;6.10;4.03;;;16.90;83.00;;;;;;5047270;28;20036;-34
2022/04/17 12:50:32;;;;;;;6.50;3.80;;;16.90;85.30;;;;;;5057881;28;20049;-36
2022/04/17 12:52:58;;;;;;;5.20;4.10;;;17.00;87.60;;;;;;5061670;28;20037;-36
2022/04/17 12:55:32;;;;;;;4.55;3.40;;;17.10;87.30;;;;;;5061421;28;20048;-35
2022/04/17 12:57:59;;;;;;;5.28;4.00;;;17.10;87.60;;;;;;5022497;28;20060;-34
2022/04/17 13:00:27;;;;;;;4.88;3.78;;;17.30;87.60;;;;;;5055452;28;20668;-36
2022/04/17 13:03:12;;;;;;;5.13;3.97;;;17.30;87.20;;;;;;5056280;28;20049;-36